Flight Track Log - Related Links

Times and Time Zones

All times are in EDT time to prevent confusion due to time zone crossing. See the SKW5500 flight status page for this flight to view local times or setup timezone preferences in your user account.


Time Position Orientation Groundspeed Altitude Reporting Facility
EDT Latitude Longitude Course Direction KTS MPH feet Rate Location/Type
Mon 05:28:00 PM 39.7306 -105.1380 250° West  Level Estimated
Mon 05:29:00 PM 39.6975 -105.2540 250° West  Level Estimated
Mon 05:30:00 PM 39.6644 -105.3698 250° West  Level Estimated
Mon 05:31:00 PM 39.6311 -105.4855 250° West  Level Estimated
Mon 05:32:00 PM 39.5977 -105.6011 249° West  Level Estimated
Mon 05:33:00 PM 39.5642 -105.7166 249° West  Level Estimated
Mon 05:34:00 PM 39.5305 -105.8320 249° West  Level Estimated
Mon 05:35:00 PM 39.4968 -105.9473 249° West  Level Estimated
Mon 05:36:00 PM 39.4629 -106.0624 249° West  Level Estimated
Mon 05:37:00 PM 39.4289 -106.1775 249° West  Level Estimated
Mon 05:38:00 PM 39.3949 -106.2924 249° West  Level Estimated
Mon 05:39:00 PM 39.3606 -106.4072 249° West  Level Estimated
Mon 05:40:00 PM 39.3263 -106.5220 249° West  Level Estimated
Mon 05:41:00 PM 39.2919 -106.6366 249° West  Level Estimated
Mon 05:42:00 PM 39.2574 -106.7510 249° West  Level Estimated
Mon 05:43:00 PM 39.2227 -106.8654 249° West  Level Estimated
Mon 05:44:00 PM 39.2219 -106.8682 249° West  Level Estimated
Mon 05:45:00 PM 39.2219 -106.8682 239° Southwest  Level Estimated
Mon 05:46:00 PM 39.2219 -106.8682 239° Southwest  Level Estimated
Mon 05:47:00 PM 39.2219 -106.8682 239° Southwest  Level Estimated
Mon 05:48:00 PM 39.2219 -106.8682 239° Southwest  Level Estimated
Mon 05:49:00 PM 39.2219 -106.8682 239° Southwest  Level Estimated

Login

Don't have an account? Register now (free) for customized features, flight alerts, and more!